createdAt,value
2023-02-23T00:00:23.791Z,6.70
2023-02-23T00:02:56.758Z,6.60
2023-02-23T00:05:27.037Z,4.03
2023-02-23T00:07:56.232Z,4.40
2023-02-23T00:10:31.228Z,4.45
2023-02-23T00:13:00.767Z,3.00
2023-02-23T00:15:30.790Z,2.83
2023-02-23T00:18:01.781Z,6.63
2023-02-23T00:20:30.805Z,2.92
2023-02-23T00:23:00.004Z,5.65
2023-02-23T00:25:31.913Z,5.05
2023-02-23T00:28:00.862Z,5.03
2023-02-23T00:30:29.808Z,5.93
2023-02-23T00:32:58.748Z,5.68
2023-02-23T00:35:29.490Z,4.53
2023-02-23T00:37:58.517Z,4.47
2023-02-23T00:40:27.579Z,7.70
2023-02-23T00:42:56.565Z,4.03
2023-02-23T00:45:25.651Z,3.92
2023-02-23T00:47:54.719Z,4.07
2023-02-23T00:50:24.073Z,3.70
2023-02-23T00:52:54.904Z,5.72
2023-02-23T00:55:23.818Z,7.32
2023-02-23T00:57:52.821Z,8.82
2023-02-23T01:00:22.198Z,10.70
2023-02-23T01:02:51.534Z,12.93
2023-02-23T01:05:21.468Z,10.32
2023-02-23T01:07:50.617Z,7.57
2023-02-23T01:10:21.431Z,5.80
2023-02-23T01:12:51.248Z,9.57
2023-02-23T01:15:21.818Z,10.30
2023-02-23T01:17:50.848Z,11.50
2023-02-23T01:20:22.705Z,11.13
2023-02-23T01:22:55.250Z,7.28
2023-02-23T01:25:29.320Z,8.35
2023-02-23T01:27:58.426Z,5.55
2023-02-23T01:30:27.480Z,9.48
2023-02-23T01:32:57.232Z,6.40
2023-02-23T01:35:26.177Z,6.75
2023-02-23T01:37:55.163Z,9.40
2023-02-23T01:40:30.351Z,7.65
2023-02-23T01:43:01.355Z,6.25
2023-02-23T01:45:35.628Z,8.73
2023-02-23T01:48:07.929Z,11.13
2023-02-23T01:50:45.069Z,6.22
2023-02-23T01:53:14.152Z,8.18
2023-02-23T01:55:45.488Z,9.85
2023-02-23T01:58:20.655Z,10.43
2023-02-23T02:00:55.073Z,8.95
2023-02-23T02:03:32.122Z,5.55
2023-02-23T02:06:02.878Z,8.88
2023-02-23T02:08:32.824Z,7.47
2023-02-23T02:11:10.501Z,9.25
2023-02-23T02:13:41.590Z,8.73
2023-02-23T02:16:36.915Z,9.50
2023-02-23T02:19:51.358Z,9.48
2023-02-23T02:22:47.292Z,8.18
2023-02-23T02:25:49.660Z,6.72
2023-02-23T02:29:00.860Z,7.60
2023-02-23T02:32:11.940Z,11.63
2023-02-23T02:35:19.817Z,8.95
2023-02-23T02:40:34.326Z,10.55
2023-02-23T02:43:12.262Z,7.22
2023-02-23T02:45:48.575Z,7.78
2023-02-23T02:48:26.929Z,7.68
2023-02-23T02:50:59.455Z,8.35
2023-02-23T02:53:41.858Z,9.98
2023-02-23T02:56:13.078Z,7.90
2023-02-23T02:58:44.364Z,7.90
2023-02-23T03:01:35.608Z,9.35
2023-02-23T03:04:38.947Z,11.32
2023-02-23T03:07:35.727Z,11.02
2023-02-23T03:10:33.659Z,11.90
2023-02-23T03:13:34.078Z,7.25
2023-02-23T03:16:40.950Z,8.40
2023-02-23T03:19:35.128Z,8.32
2023-02-23T03:22:32.006Z,10.13
2023-02-23T03:25:24.313Z,5.82
2023-02-23T03:28:17.919Z,9.13
2023-02-23T03:31:10.787Z,6.55
2023-02-23T03:34:06.429Z,6.57
2023-02-23T03:37:00.403Z,10.85
2023-02-23T03:39:54.237Z,6.15
2023-02-23T03:42:46.199Z,5.97
2023-02-23T03:45:38.187Z,7.80
2023-02-23T03:48:29.608Z,5.22
2023-02-23T03:51:21.088Z,3.80
2023-02-23T03:54:13.783Z,5.40
2023-02-23T03:57:06.361Z,6.38
2023-02-23T03:59:58.086Z,6.60
2023-02-23T04:02:50.024Z,7.65
2023-02-23T04:05:39.399Z,6.72
2023-02-23T04:08:31.559Z,4.07
2023-02-23T04:11:24.414Z,6.15
2023-02-23T04:13:59.902Z,8.02
2023-02-23T04:16:31.662Z,7.22
2023-02-23T04:19:03.237Z,5.30
2023-02-23T04:21:33.134Z,7.78
2023-02-23T04:24:02.524Z,8.82
2023-02-23T04:26:31.624Z,5.72
2023-02-23T04:29:00.561Z,7.47
2023-02-23T04:31:29.544Z,6.15
2023-02-23T04:33:58.509Z,6.53
2023-02-23T04:36:29.334Z,5.90
2023-02-23T04:38:58.263Z,6.00
2023-02-23T04:41:27.287Z,4.93
2023-02-23T04:43:56.301Z,6.30
2023-02-23T04:46:25.529Z,8.90
2023-02-23T04:48:54.512Z,7.93
2023-02-23T04:51:23.568Z,6.90
2023-02-23T04:53:54.232Z,6.53
2023-02-23T04:56:23.223Z,9.60
2023-02-23T04:58:52.247Z,9.00
2023-02-23T05:01:23.066Z,7.93
2023-02-23T05:03:52.824Z,8.50
2023-02-23T05:06:22.743Z,10.20
2023-02-23T05:08:53.330Z,8.55
2023-02-23T05:11:22.350Z,8.02
2023-02-23T05:13:51.450Z,6.93
2023-02-23T05:16:20.411Z,8.52
2023-02-23T05:18:50.526Z,6.30
2023-02-23T05:21:19.665Z,9.55
2023-02-23T05:23:49.248Z,8.82
2023-02-23T05:26:19.896Z,5.50
2023-02-23T05:28:49.622Z,11.57
2023-02-23T05:31:18.899Z,11.85
2023-02-23T05:33:48.128Z,8.90
2023-02-23T05:36:18.933Z,7.28
2023-02-23T05:38:48.909Z,5.75
2023-02-23T05:41:21.833Z,10.32
2023-02-23T05:43:54.433Z,9.98
2023-02-23T05:46:25.699Z,8.63
2023-02-23T05:48:58.422Z,13.70
2023-02-23T05:51:28.745Z,8.60
2023-02-23T05:53:57.812Z,9.10
2023-02-23T05:56:28.573Z,8.60
2023-02-23T05:58:58.990Z,11.65
2023-02-23T06:01:28.754Z,8.98
2023-02-23T06:03:58.157Z,8.13
2023-02-23T06:06:27.204Z,6.07
2023-02-23T06:08:56.687Z,8.85
2023-02-23T06:11:25.717Z,9.77
2023-02-23T06:13:56.766Z,9.63
2023-02-23T06:16:25.864Z,9.13
2023-02-23T06:18:54.932Z,11.60
2023-02-23T06:21:24.043Z,9.30
2023-02-23T06:23:54.242Z,9.10
2023-02-23T06:26:23.257Z,9.15
2023-02-23T06:28:52.247Z,10.02
2023-02-23T06:31:22.945Z,9.35
2023-02-23T06:33:52.054Z,8.75
2023-02-23T06:36:21.446Z,11.07
2023-02-23T06:38:50.467Z,11.75
2023-02-23T06:41:19.636Z,8.30
2023-02-23T06:43:48.778Z,9.57
2023-02-23T06:46:18.135Z,11.35
2023-02-23T06:48:48.791Z,7.72
2023-02-23T06:51:18.133Z,9.45
2023-02-23T06:53:47.377Z,8.15
2023-02-23T06:56:16.442Z,8.25
2023-02-23T06:58:45.664Z,8.40
2023-02-23T07:01:14.717Z,8.40
2023-02-23T07:03:43.894Z,8.93
2023-02-23T07:06:14.635Z,9.98
2023-02-23T07:08:43.641Z,8.70
2023-02-23T07:11:14.346Z,12.02
2023-02-23T07:13:43.648Z,8.50
2023-02-23T07:16:15.362Z,9.80
2023-02-23T07:18:44.435Z,7.80
2023-02-23T07:21:15.091Z,6.68
2023-02-23T07:23:44.060Z,10.13
2023-02-23T07:26:16.678Z,7.55
2023-02-23T07:28:45.830Z,11.13
2023-02-23T07:31:14.912Z,7.32
2023-02-23T07:33:44.030Z,9.40
2023-02-23T07:36:14.761Z,5.15
2023-02-23T07:38:43.801Z,8.18
2023-02-23T07:41:12.779Z,9.23
2023-02-23T07:43:42.166Z,9.30
2023-02-23T07:46:11.231Z,9.48
2023-02-23T07:48:43.854Z,10.55
2023-02-23T07:51:18.347Z,6.15
2023-02-23T07:53:47.525Z,8.13
2023-02-23T07:56:16.578Z,12.20
2023-02-23T07:58:45.973Z,5.75
2023-02-23T08:01:15.523Z,8.25
2023-02-23T08:03:50.266Z,8.00
2023-02-23T08:06:21.901Z,6.43
2023-02-23T08:08:50.882Z,6.13
2023-02-23T08:11:20.325Z,7.13
2023-02-23T08:13:49.670Z,8.23
2023-02-23T08:16:19.400Z,11.27
2023-02-23T08:18:48.486Z,8.95
2023-02-23T08:21:17.657Z,5.82
2023-02-23T08:23:48.348Z,8.18
2023-02-23T08:26:17.425Z,6.63
2023-02-23T08:28:47.336Z,7.75
2023-02-23T08:31:19.515Z,6.55
2023-02-23T08:33:48.683Z,6.43
2023-02-23T08:36:17.759Z,5.65
2023-02-23T08:38:48.821Z,4.43
2023-02-23T08:41:18.461Z,8.25
2023-02-23T08:43:47.812Z,8.00
2023-02-23T08:46:19.492Z,7.45
2023-02-23T08:48:48.567Z,4.82
2023-02-23T08:51:18.320Z,4.13
2023-02-23T08:53:49.187Z,6.85
2023-02-23T08:56:18.186Z,4.55
2023-02-23T08:58:47.172Z,6.53
2023-02-23T09:01:19.503Z,4.88
2023-02-23T09:03:48.715Z,4.72
2023-02-23T09:06:20.763Z,4.15
2023-02-23T09:08:51.584Z,9.55
2023-02-23T09:11:20.868Z,6.05
2023-02-23T09:13:50.074Z,4.88
2023-02-23T09:16:19.350Z,6.15
2023-02-23T09:18:48.661Z,6.28
2023-02-23T09:21:27.207Z,4.53
2023-02-23T09:23:58.105Z,6.22
2023-02-23T09:26:30.186Z,7.57
2023-02-23T09:29:02.330Z,7.68
2023-02-23T09:31:31.370Z,9.35
2023-02-23T09:34:03.433Z,8.27
2023-02-23T09:36:32.592Z,5.95
2023-02-23T09:39:03.752Z,4.90
2023-02-23T09:42:01.442Z,6.05
2023-02-23T09:44:46.177Z,5.70
2023-02-23T09:47:33.833Z,5.05
2023-02-23T09:50:07.503Z,5.18
2023-02-23T09:52:42.303Z,9.20
2023-02-23T09:55:15.406Z,11.35
2023-02-23T09:57:47.113Z,7.13
2023-02-23T10:00:20.686Z,7.18
2023-02-23T10:03:04.557Z,6.53
2023-02-23T10:05:39.862Z,5.32
2023-02-23T10:08:16.208Z,9.32
2023-02-23T10:10:50.429Z,5.07
2023-02-23T10:13:30.714Z,9.10
2023-02-23T10:16:08.226Z,5.32
2023-02-23T10:18:46.937Z,11.63
2023-02-23T10:21:22.285Z,6.80
2023-02-23T10:23:55.400Z,7.47
2023-02-23T10:26:28.873Z,8.30
2023-02-23T10:28:59.642Z,8.57
2023-02-23T10:31:35.223Z,7.75
2023-02-23T10:34:07.385Z,8.07
2023-02-23T10:36:39.159Z,7.60
2023-02-23T10:39:09.727Z,7.63
2023-02-23T10:41:41.333Z,7.57
2023-02-23T10:44:20.180Z,7.68
2023-02-23T10:46:55.500Z,8.82
2023-02-23T10:49:30.796Z,4.87
2023-02-23T10:52:03.808Z,12.90
2023-02-23T10:54:48.388Z,4.45
2023-02-23T10:57:27.987Z,5.20
2023-02-23T11:00:33.749Z,7.63
2023-02-23T11:03:05.155Z,6.75
2023-02-23T11:05:37.685Z,6.50
2023-02-23T11:08:32.184Z,7.47
2023-02-23T11:11:19.749Z,4.60
2023-02-23T11:13:53.483Z,6.20
2023-02-23T11:16:25.446Z,8.02
2023-02-23T11:18:57.628Z,7.93
2023-02-23T11:21:30.428Z,7.47
2023-02-23T11:24:02.779Z,6.28
2023-02-23T11:26:39.363Z,7.18
2023-02-23T11:29:21.001Z,4.97
2023-02-23T11:31:52.990Z,6.65
2023-02-23T11:34:30.925Z,6.18
2023-02-23T11:37:05.549Z,5.07
2023-02-23T11:39:35.215Z,7.90
2023-02-23T11:42:19.972Z,4.57
2023-02-23T11:45:07.061Z,4.40
2023-02-23T11:47:41.759Z,5.80
2023-02-23T11:50:24.708Z,5.90
2023-02-23T11:53:02.602Z,7.03
2023-02-23T11:55:32.516Z,4.78
2023-02-23T11:58:24.541Z,5.38
2023-02-23T12:01:00.292Z,4.25
2023-02-23T12:03:32.015Z,3.10
2023-02-23T12:06:03.170Z,14.25
2023-02-23T12:08:41.454Z,3.50
2023-02-23T12:11:15.754Z,3.75
2023-02-23T12:13:49.294Z,4.03
2023-02-23T12:16:24.196Z,3.47
2023-02-23T12:18:59.248Z,3.75
2023-02-23T12:21:34.089Z,4.13
2023-02-23T12:24:19.117Z,6.55
2023-02-23T12:26:52.644Z,6.93
2023-02-23T12:29:31.253Z,6.43
2023-02-23T12:32:04.595Z,3.47
2023-02-23T12:34:40.705Z,3.65
2023-02-23T12:37:37.945Z,8.68
2023-02-23T12:40:17.327Z,5.78
2023-02-23T12:43:00.454Z,5.88
2023-02-23T12:45:37.793Z,3.25
2023-02-23T12:48:20.887Z,3.85
2023-02-23T12:50:54.544Z,4.57
2023-02-23T12:53:27.462Z,4.07
2023-02-23T12:56:13.761Z,5.03
2023-02-23T12:58:51.040Z,3.28
2023-02-23T13:01:25.396Z,6.45
2023-02-23T13:04:31.647Z,4.53
2023-02-23T13:07:07.459Z,5.43
2023-02-23T13:09:48.512Z,4.20
2023-02-23T13:12:31.100Z,4.22
2023-02-23T13:15:10.982Z,5.18
2023-02-23T13:17:47.998Z,4.50
2023-02-23T13:20:25.590Z,5.38
2023-02-23T13:23:02.696Z,5.45
2023-02-23T13:25:42.108Z,4.13
2023-02-23T13:28:18.883Z,3.97
2023-02-23T13:30:48.666Z,3.60
2023-02-23T13:33:35.050Z,2.72
2023-02-23T13:36:13.703Z,3.10
2023-02-23T13:38:54.020Z,3.72
2023-02-23T13:41:34.318Z,3.83
2023-02-23T13:44:10.929Z,2.97
2023-02-23T13:46:48.432Z,2.63
2023-02-23T13:49:35.839Z,3.55
2023-02-23T13:52:15.477Z,6.20
2023-02-23T13:54:57.234Z,4.35
2023-02-23T13:57:28.693Z,4.00
2023-02-23T13:59:58.516Z,5.07
2023-02-23T14:02:38.445Z,4.30
2023-02-23T14:05:16.926Z,4.43
2023-02-23T14:07:52.573Z,5.28
2023-02-23T14:10:23.928Z,4.68
2023-02-23T14:13:08.987Z,4.55
2023-02-23T14:15:46.812Z,3.05
2023-02-23T14:18:34.285Z,4.00
2023-02-23T14:21:20.284Z,4.32
2023-02-23T14:24:03.888Z,3.40
2023-02-23T14:26:41.770Z,4.60
2023-02-23T14:29:32.749Z,5.70
2023-02-23T14:32:04.975Z,3.97
2023-02-23T14:34:49.209Z,4.45
2023-02-23T14:37:26.353Z,7.85
2023-02-23T14:40:03.076Z,4.13
2023-02-23T14:42:32.123Z,3.03
2023-02-23T14:45:08.940Z,6.47
2023-02-23T14:47:47.317Z,3.42
2023-02-23T14:50:24.900Z,4.70
2023-02-23T14:52:56.899Z,3.75
2023-02-23T14:55:29.899Z,4.63
2023-02-23T14:57:59.796Z,4.22
2023-02-23T15:00:33.247Z,4.22
2023-02-23T15:03:04.305Z,6.95
2023-02-23T15:05:35.796Z,4.53
2023-02-23T15:08:07.665Z,4.50
2023-02-23T15:10:40.329Z,5.55
2023-02-23T15:13:17.480Z,5.70
2023-02-23T15:15:48.363Z,3.97
2023-02-23T15:18:25.577Z,6.38
2023-02-23T15:20:54.841Z,5.60
2023-02-23T15:23:23.984Z,7.45
2023-02-23T15:25:54.662Z,4.28
2023-02-23T15:28:26.351Z,5.72
2023-02-23T15:30:56.825Z,4.50
2023-02-23T15:33:29.439Z,2.72
2023-02-23T15:36:04.541Z,8.90
2023-02-23T15:38:43.421Z,6.15
2023-02-23T15:41:23.921Z,5.93
2023-02-23T15:43:53.255Z,4.45
2023-02-23T15:46:27.723Z,4.80
2023-02-23T15:49:01.658Z,8.13
2023-02-23T15:51:35.934Z,7.50
2023-02-23T15:54:14.587Z,3.97
2023-02-23T15:56:50.468Z,3.20
2023-02-23T15:59:24.569Z,7.28
2023-02-23T16:01:58.049Z,7.00
2023-02-23T16:04:33.271Z,4.85
2023-02-23T16:07:16.014Z,4.45
2023-02-23T16:09:51.312Z,4.28
2023-02-23T16:12:24.725Z,3.25
2023-02-23T16:14:56.978Z,3.45
2023-02-23T16:17:34.990Z,3.20
2023-02-23T16:20:15.289Z,4.28
2023-02-23T16:22:46.876Z,4.90
2023-02-23T16:25:19.438Z,2.42
2023-02-23T16:28:01.195Z,3.40
2023-02-23T16:30:41.569Z,2.25
2023-02-23T16:33:21.554Z,2.20
2023-02-23T16:35:51.929Z,4.07
2023-02-23T16:38:27.083Z,4.13
2023-02-23T16:40:56.507Z,2.15
2023-02-23T16:43:27.801Z,2.00
2023-02-23T16:45:57.686Z,4.10
2023-02-23T16:48:27.780Z,3.30
2023-02-23T16:50:58.454Z,3.25
2023-02-23T16:53:27.492Z,2.65
2023-02-23T16:56:01.833Z,2.63
2023-02-23T16:58:35.007Z,2.95
2023-02-23T17:01:04.455Z,3.30
2023-02-23T17:03:35.969Z,2.60
2023-02-23T17:06:07.879Z,2.25
2023-02-23T17:08:41.290Z,3.33
2023-02-23T17:11:12.642Z,3.77
2023-02-23T17:13:43.390Z,2.78
2023-02-23T17:16:14.172Z,2.70
2023-02-23T17:18:45.773Z,2.83
2023-02-23T17:21:24.543Z,2.42
2023-02-23T17:24:03.470Z,2.97
2023-02-23T17:26:32.522Z,3.95
2023-02-23T17:29:03.213Z,2.60
2023-02-23T17:31:32.970Z,2.28
2023-02-23T17:34:02.088Z,1.90
2023-02-23T17:36:31.099Z,2.60
2023-02-23T17:39:00.651Z,2.85
2023-02-23T17:41:29.744Z,3.55
2023-02-23T17:43:58.802Z,2.55
2023-02-23T17:46:29.910Z,3.13
2023-02-23T17:48:58.954Z,3.17
2023-02-23T17:51:28.033Z,2.25
2023-02-23T17:53:57.131Z,2.20
2023-02-23T17:56:26.460Z,2.95
2023-02-23T17:58:55.621Z,3.30
2023-02-23T18:01:24.972Z,3.13
2023-02-23T18:03:59.370Z,3.03
2023-02-23T18:06:28.702Z,4.53
2023-02-23T18:08:57.927Z,2.63
2023-02-23T18:11:27.147Z,3.40
2023-02-23T18:13:56.385Z,2.35
2023-02-23T18:16:25.486Z,2.50
2023-02-23T18:18:58.491Z,1.70
2023-02-23T18:21:28.169Z,1.90
2023-02-23T18:23:57.489Z,2.08
2023-02-23T18:26:26.680Z,2.72
2023-02-23T18:28:57.755Z,2.10
2023-02-23T18:31:31.319Z,2.60
2023-02-23T18:34:02.873Z,2.33
2023-02-23T18:36:36.179Z,2.42
2023-02-23T18:39:07.673Z,1.60
2023-02-23T18:41:37.077Z,2.80
2023-02-23T18:44:09.033Z,2.17
2023-02-23T18:46:39.266Z,3.15
2023-02-23T18:49:12.792Z,1.90
2023-02-23T18:51:42.506Z,1.55
2023-02-23T18:54:17.576Z,1.40
2023-02-23T18:56:48.064Z,1.08
2023-02-23T18:59:17.661Z,1.85
2023-02-23T19:01:48.722Z,2.70
2023-02-23T19:04:19.508Z,1.48
2023-02-23T19:06:48.983Z,3.05
2023-02-23T19:09:22.259Z,2.13
2023-02-23T19:11:52.020Z,3.58
2023-02-23T19:14:32.846Z,1.83
2023-02-23T19:17:10.153Z,2.47
2023-02-23T19:19:41.231Z,1.67
2023-02-23T19:22:10.414Z,1.20
2023-02-23T19:24:39.609Z,1.23
2023-02-23T19:27:08.721Z,2.63
2023-02-23T19:29:38.612Z,1.83
2023-02-23T19:32:07.964Z,2.25
2023-02-23T19:34:37.316Z,1.63
2023-02-23T19:37:09.856Z,2.65
2023-02-23T19:39:39.119Z,2.17
2023-02-23T19:42:08.976Z,1.60
2023-02-23T19:44:37.996Z,1.85
2023-02-23T19:47:06.997Z,2.45
2023-02-23T19:49:36.152Z,3.50
2023-02-23T19:52:06.885Z,1.90
2023-02-23T19:54:38.822Z,1.92
2023-02-23T19:57:07.912Z,2.40
2023-02-23T19:59:38.571Z,2.58
2023-02-23T20:02:08.072Z,1.90
2023-02-23T20:04:37.138Z,2.42
2023-02-23T20:07:12.374Z,1.35
2023-02-23T20:09:41.412Z,1.40
2023-02-23T20:12:10.846Z,2.28
2023-02-23T20:14:40.990Z,2.83
2023-02-23T20:17:10.100Z,1.83
2023-02-23T20:19:39.086Z,1.50
2023-02-23T20:22:09.729Z,1.83
2023-02-23T20:24:38.727Z,2.22
2023-02-23T20:27:07.766Z,3.60
2023-02-23T20:29:36.967Z,4.18
2023-02-23T20:32:07.062Z,2.22
2023-02-23T20:34:36.513Z,1.73
2023-02-23T20:37:05.532Z,2.17
2023-02-23T20:39:38.416Z,1.65
2023-02-23T20:42:07.559Z,1.30
2023-02-23T20:44:36.665Z,1.25
2023-02-23T20:47:10.754Z,1.30
2023-02-23T20:49:41.415Z,1.25
2023-02-23T20:52:10.367Z,1.15
2023-02-23T20:54:41.044Z,1.48
2023-02-23T20:57:10.104Z,2.20
2023-02-23T20:59:39.263Z,1.33
2023-02-23T21:02:09.924Z,1.00
2023-02-23T21:04:39.719Z,1.33
2023-02-23T21:07:08.965Z,1.58
2023-02-23T21:09:41.458Z,1.30
2023-02-23T21:12:11.125Z,1.50
2023-02-23T21:14:40.283Z,1.83
2023-02-23T21:17:10.521Z,1.75
2023-02-23T21:19:39.827Z,1.58
2023-02-23T21:22:08.999Z,2.15
2023-02-23T21:24:41.962Z,1.33
2023-02-23T21:27:13.646Z,2.50
2023-02-23T21:29:43.974Z,1.50
2023-02-23T21:32:14.918Z,2.00
2023-02-23T21:34:44.475Z,1.48
2023-02-23T21:37:13.576Z,1.40
2023-02-23T21:39:44.366Z,2.80
2023-02-23T21:42:13.429Z,1.40
2023-02-23T21:44:45.317Z,3.03
2023-02-23T21:47:15.369Z,2.22
2023-02-23T21:49:49.946Z,1.50
2023-02-23T21:52:19.248Z,1.75
2023-02-23T21:54:52.762Z,2.05
2023-02-23T21:57:23.629Z,2.63
2023-02-23T21:59:52.819Z,3.10
2023-02-23T22:02:22.198Z,1.67
2023-02-23T22:04:51.897Z,1.98
2023-02-23T22:07:22.639Z,2.00
2023-02-23T22:09:53.246Z,2.58
2023-02-23T22:12:22.313Z,2.75
2023-02-23T22:14:51.353Z,1.83
2023-02-23T22:17:21.003Z,1.95
2023-02-23T22:19:55.540Z,2.35
2023-02-23T22:22:24.489Z,1.80
2023-02-23T22:24:55.145Z,3.30
2023-02-23T22:27:24.172Z,1.88
2023-02-23T22:29:53.116Z,3.33
2023-02-23T22:32:22.307Z,1.60
2023-02-23T22:34:51.956Z,1.88
2023-02-23T22:37:22.829Z,1.80
2023-02-23T22:39:53.467Z,3.05
2023-02-23T22:42:25.205Z,2.38
2023-02-23T22:44:54.998Z,1.65
2023-02-23T22:47:24.306Z,2.35
2023-02-23T22:49:53.287Z,3.78
2023-02-23T22:52:22.281Z,3.15
2023-02-23T22:54:54.395Z,2.35
2023-02-23T22:57:23.395Z,1.70
2023-02-23T23:00:01.524Z,2.58
2023-02-23T23:02:34.393Z,1.70
2023-02-23T23:05:03.480Z,1.73
2023-02-23T23:07:33.196Z,1.65
2023-02-23T23:10:06.266Z,2.40
2023-02-23T23:12:35.305Z,2.00
2023-02-23T23:15:04.939Z,2.75
2023-02-23T23:17:34.249Z,3.53
2023-02-23T23:20:03.805Z,2.58
2023-02-23T23:22:36.249Z,1.55
2023-02-23T23:25:15.356Z,3.78
2023-02-23T23:27:47.795Z,2.38
2023-02-23T23:30:21.877Z,2.03
2023-02-23T23:32:51.101Z,3.00
2023-02-23T23:35:22.681Z,2.42
2023-02-23T23:37:52.568Z,3.03
2023-02-23T23:40:25.140Z,5.05
2023-02-23T23:42:56.194Z,4.22
2023-02-23T23:45:25.199Z,1.60
2023-02-23T23:47:54.397Z,2.05
2023-02-23T23:50:27.492Z,1.92
2023-02-23T23:52:57.807Z,2.55
2023-02-23T23:55:32.200Z,2.47
2023-02-23T23:58:01.159Z,3.25
